Time;durP1;ratioP1;P1;durP2;ratioP2;P2;SDS_P1;SDS_P2;PMS_P1;PMS_P2;Temp;Humidity;BMP_temperature;BMP_pressure;BME280_temperature;BME280_humidity;BME280_pressure;Samples;Min_cycle;Max_cycle;Signal;HPM_P1;HPM_P2
2022/09/29 00:00:08;;;;;;;8.50;5.38;;;10.20;99.90;;;;;;4989771;28;25106;-71
2022/09/29 00:02:34;;;;;;;11.10;6.07;;;10.30;99.90;;;;;;4991037;28;25081;-72
2022/09/29 00:04:59;;;;;;;8.15;5.85;;;10.30;99.90;;;;;;4995414;28;25073;-71
2022/09/29 00:07:25;;;;;;;7.82;5.32;;;10.30;99.90;;;;;;4987875;28;25050;-70
2022/09/29 00:09:50;;;;;;;9.48;5.68;;;10.20;99.90;;;;;;4986996;28;25125;-71
2022/09/29 00:12:16;;;;;;;12.02;5.85;;;10.10;99.90;;;;;;4992617;28;25071;-68
2022/09/29 00:14:41;;;;;;;11.43;6.07;;;10.10;99.90;;;;;;4994802;28;25066;-69
2022/09/29 00:17:07;;;;;;;12.52;6.28;;;10.10;99.90;;;;;;4991542;28;25100;-72
2022/09/29 00:19:33;;;;;;;10.52;5.70;;;10.00;99.90;;;;;;5004433;28;25160;-69
2022/09/29 00:21:58;;;;;;;8.30;5.47;;;10.10;99.90;;;;;;4988913;28;25173;-72
2022/09/29 00:24:25;;;;;;;6.75;5.13;;;10.00;99.90;;;;;;4988768;28;25103;-72
2022/09/29 00:26:50;;;;;;;8.30;5.70;;;10.10;99.90;;;;;;5004905;28;25050;-72
2022/09/29 00:29:16;;;;;;;15.43;6.45;;;10.20;99.90;;;;;;4986872;28;25142;-72
2022/09/29 00:31:41;;;;;;;11.48;6.18;;;10.10;99.90;;;;;;4992491;28;25092;-73
2022/09/29 00:34:07;;;;;;;10.35;5.93;;;10.10;99.90;;;;;;4999549;28;25068;-72
2022/09/29 00:36:33;;;;;;;10.45;6.20;;;10.00;99.90;;;;;;4997829;28;25057;-71
2022/09/29 00:38:58;;;;;;;10.27;6.22;;;9.90;99.90;;;;;;5000267;28;25150;-73
2022/09/29 00:41:27;;;;;;;9.45;6.40;;;9.90;99.90;;;;;;5000274;28;25085;-74
2022/09/29 00:43:59;;;;;;;15.48;6.25;;;9.90;99.90;;;;;;5006036;28;25048;-71
2022/09/29 00:46:48;;;;;;;9.35;6.10;;;9.90;99.90;;;;;;4998151;28;25076;-74
2022/09/29 00:49:18;;;;;;;10.80;6.43;;;9.80;99.90;;;;;;5003151;28;25080;-71
2022/09/29 00:52:06;;;;;;;10.75;6.82;;;9.80;99.90;;;;;;4996139;28;25092;-71
2022/09/29 00:54:38;;;;;;;11.95;6.40;;;9.80;99.90;;;;;;4989338;28;25063;-73
2022/09/29 00:57:06;;;;;;;10.63;7.10;;;9.80;99.90;;;;;;4993798;28;25063;-72
2022/09/29 00:59:40;;;;;;;10.77;7.03;;;9.80;99.90;;;;;;4986473;28;25065;-69
2022/09/29 01:02:07;;;;;;;13.30;6.50;;;9.70;99.90;;;;;;4987196;28;25069;-72
2022/09/29 01:04:33;;;;;;;11.48;6.72;;;9.70;99.90;;;;;;4985808;28;25065;-71
2022/09/29 01:06:59;;;;;;;12.40;6.72;;;9.80;99.90;;;;;;4984700;28;25081;-73
2022/09/29 01:09:33;;;;;;;11.63;6.20;;;9.70;99.90;;;;;;4989731;28;25069;-72
2022/09/29 01:12:00;;;;;;;11.52;6.25;;;9.80;99.90;;;;;;4985957;28;25085;-70
2022/09/29 01:14:28;;;;;;;11.73;7.10;;;9.70;99.90;;;;;;5003533;28;25066;-72
2022/09/29 01:16:53;;;;;;;18.88;6.75;;;9.70;99.90;;;;;;5017288;28;25085;-74
2022/09/29 01:19:22;;;;;;;9.43;6.38;;;9.60;99.90;;;;;;5000204;28;25052;-71
2022/09/29 01:22:06;;;;;;;12.02;6.40;;;9.70;99.90;;;;;;5000366;28;25062;-72
2022/09/29 01:24:35;;;;;;;9.48;5.90;;;9.70;99.90;;;;;;4991500;28;25073;-72
2022/09/29 01:27:10;;;;;;;11.07;6.38;;;9.70;99.90;;;;;;4996024;28;25075;-71
2022/09/29 01:30:02;;;;;;;13.48;6.95;;;9.50;99.90;;;;;;4997995;28;25050;-72
2022/09/29 01:32:32;;;;;;;10.02;6.60;;;9.60;99.90;;;;;;4990556;28;25148;-74
2022/09/29 01:35:30;;;;;;;11.77;6.70;;;9.60;99.90;;;;;;4985872;28;25075;-71
2022/09/29 01:38:22;;;;;;;12.23;7.32;;;9.50;99.90;;;;;;4989806;28;25054;-70
2022/09/29 01:40:53;;;;;;;10.98;6.70;;;9.50;99.90;;;;;;4995461;28;25208;-72
2022/09/29 01:43:27;;;;;;;10.85;6.72;;;9.60;99.90;;;;;;4996880;28;25078;-72
2022/09/29 01:46:05;;;;;;;12.63;7.43;;;9.50;99.90;;;;;;4997072;28;25071;-71
2022/09/29 01:48:36;;;;;;;12.57;6.63;;;9.50;99.90;;;;;;4999476;28;25071;-70
2022/09/29 01:51:08;;;;;;;12.35;6.35;;;9.40;99.90;;;;;;4995911;28;25056;-70
2022/09/29 01:53:40;;;;;;;12.77;7.88;;;9.30;99.90;;;;;;4981763;28;25093;-71
2022/09/29 01:56:16;;;;;;;14.80;7.25;;;9.30;99.90;;;;;;4984943;28;25133;-72
2022/09/29 01:59:10;;;;;;;12.90;6.70;;;9.30;99.90;;;;;;4979564;28;25092;-73
2022/09/29 02:01:40;;;;;;;11.80;7.32;;;9.30;99.90;;;;;;4985994;28;25132;-72
2022/09/29 02:04:30;;;;;;;12.48;7.32;;;9.30;99.90;;;;;;4986387;28;25161;-72
2022/09/29 02:07:06;;;;;;;12.45;6.45;;;9.30;99.90;;;;;;4990545;28;25072;-71
2022/09/29 02:09:39;;;;;;;12.07;6.78;;;9.40;99.90;;;;;;4997440;28;25055;-71
2022/09/29 02:12:07;;;;;;;12.73;6.22;;;9.40;99.90;;;;;;4990765;28;25069;-73
2022/09/29 02:14:39;;;;;;;15.93;8.05;;;9.30;99.90;;;;;;4991500;28;25070;-72
2022/09/29 02:17:18;;;;;;;12.45;7.05;;;9.20;99.90;;;;;;4987217;28;25146;-73
2022/09/29 02:19:46;;;;;;;10.85;6.38;;;9.30;99.90;;;;;;4990924;28;25061;-72
2022/09/29 02:22:13;;;;;;;15.93;7.78;;;9.40;99.90;;;;;;4986677;28;25145;-72
2022/09/29 02:24:38;;;;;;;14.05;7.18;;;9.30;99.90;;;;;;5007976;28;25138;-72
2022/09/29 02:27:05;;;;;;;13.75;7.18;;;9.40;99.90;;;;;;4981953;28;25083;-72
2022/09/29 02:29:32;;;;;;;11.98;7.38;;;9.30;99.90;;;;;;4989230;28;24958;-72
2022/09/29 02:32:01;;;;;;;11.63;7.50;;;9.20;99.90;;;;;;4993692;28;25083;-73
2022/09/29 02:34:28;;;;;;;15.45;7.13;;;9.30;99.90;;;;;;4987104;28;25144;-73
2022/09/29 02:37:18;;;;;;;15.52;7.68;;;9.20;99.90;;;;;;4991819;28;25076;-72
2022/09/29 02:40:03;;;;;;;12.55;7.20;;;9.20;99.90;;;;;;4998340;28;25091;-72
2022/09/29 02:42:47;;;;;;;17.00;6.90;;;9.30;99.90;;;;;;4986640;28;25134;-72
2022/09/29 02:45:13;;;;;;;14.48;8.07;;;9.30;99.90;;;;;;4987237;28;25101;-73
2022/09/29 02:47:57;;;;;;;12.00;7.65;;;9.30;99.90;;;;;;4999565;28;25086;-72
2022/09/29 02:50:40;;;;;;;17.20;7.25;;;9.30;99.90;;;;;;4985660;28;25060;-72
2022/09/29 02:53:05;;;;;;;;;;;9.30;99.90;;;;;;4989424;28;25078;-74
2022/09/29 02:55:44;;;;;;;11.98;7.43;;;9.40;99.90;;;;;;4996642;28;24075;-72
2022/09/29 02:58:36;;;;;;;12.93;7.07;;;9.40;99.90;;;;;;4991041;28;25061;-73
2022/09/29 03:01:04;;;;;;;10.67;7.30;;;9.40;99.90;;;;;;4986485;28;25052;-72
2022/09/29 03:03:29;;;;;;;12.27;7.25;;;9.30;99.90;;;;;;4994417;28;25054;-71
2022/09/29 03:05:55;;;;;;;12.15;7.25;;;9.30;99.90;;;;;;4986873;28;25042;-71
2022/09/29 03:08:21;;;;;;;13.73;8.00;;;9.20;99.90;;;;;;5014827;28;25109;-71
2022/09/29 03:10:46;;;;;;;12.93;7.15;;;9.30;99.90;;;;;;4996424;28;25129;-73
2022/09/29 03:13:12;;;;;;;11.63;7.18;;;9.20;99.90;;;;;;4989935;28;25147;-71
2022/09/29 03:15:37;;;;;;;15.57;8.10;;;9.10;99.90;;;;;;4990027;28;25083;-71
2022/09/29 03:18:03;;;;;;;11.35;7.07;;;9.10;99.90;;;;;;4997541;28;25073;-73
2022/09/29 03:20:29;;;;;;;14.98;7.53;;;9.10;99.90;;;;;;4990019;28;25063;-72
2022/09/29 03:22:56;;;;;;;11.95;7.30;;;9.00;99.90;;;;;;4987752;28;25123;-74
2022/09/29 03:25:23;;;;;;;13.38;8.00;;;9.00;99.90;;;;;;4984809;28;25106;-73
2022/09/29 03:27:49;;;;;;;12.82;7.07;;;9.00;99.90;;;;;;4995191;28;25067;-73
2022/09/29 03:30:15;;;;;;;15.07;7.60;;;9.00;99.90;;;;;;4978895;28;25069;-71
2022/09/29 03:32:42;;;;;;;13.70;7.95;;;8.90;99.90;;;;;;4987881;28;25077;-71
2022/09/29 03:35:09;;;;;;;14.45;8.63;;;9.00;99.90;;;;;;4985989;28;25063;-73
2022/09/29 03:37:34;;;;;;;12.10;7.57;;;9.00;99.90;;;;;;4977905;28;25068;-73
2022/09/29 03:40:00;;;;;;;14.80;7.45;;;9.00;99.90;;;;;;4987674;28;25067;-72
2022/09/29 03:42:27;;;;;;;15.07;8.25;;;8.90;99.90;;;;;;4984813;28;25057;-72
2022/09/29 03:44:53;;;;;;;16.83;8.43;;;8.90;99.90;;;;;;4997558;28;25049;-73
2022/09/29 03:47:18;;;;;;;16.85;8.18;;;8.90;99.90;;;;;;4980733;28;25087;-74
2022/09/29 03:49:44;;;;;;;16.42;8.27;;;8.90;99.90;;;;;;4992871;28;25088;-73
2022/09/29 03:52:09;;;;;;;14.88;7.90;;;8.90;99.90;;;;;;4968464;28;25126;-72
2022/09/29 03:54:35;;;;;;;13.85;7.75;;;8.90;99.90;;;;;;4990903;28;25161;-71
2022/09/29 03:57:01;;;;;;;15.68;7.85;;;8.80;99.90;;;;;;4992624;28;25201;-73
2022/09/29 03:59:26;;;;;;;19.35;10.63;;;8.80;99.90;;;;;;4981091;28;25079;-72
2022/09/29 04:01:52;;;;;;;16.63;8.15;;;8.90;99.90;;;;;;4993318;28;25071;-73
2022/09/29 04:04:17;;;;;;;12.25;7.22;;;8.90;99.90;;;;;;4984405;28;25138;-72
2022/09/29 04:06:43;;;;;;;18.52;8.68;;;8.90;99.90;;;;;;4986329;28;25138;-72
2022/09/29 04:09:08;;;;;;;14.55;8.35;;;8.90;99.90;;;;;;4994480;28;25094;-73
2022/09/29 04:11:34;;;;;;;15.50;8.40;;;9.00;99.90;;;;;;4987931;28;25070;-74
2022/09/29 04:13:59;;;;;;;15.80;8.77;;;8.90;99.90;;;;;;4989163;28;25101;-73
2022/09/29 04:16:25;;;;;;;12.90;7.90;;;8.90;99.90;;;;;;4980477;28;25160;-72
2022/09/29 04:18:51;;;;;;;12.68;7.97;;;8.90;99.90;;;;;;4980649;28;25154;-71
2022/09/29 04:21:16;;;;;;;14.82;8.52;;;8.80;99.90;;;;;;4993111;28;25077;-74
2022/09/29 04:23:42;;;;;;;16.00;7.97;;;8.90;99.90;;;;;;4987954;28;25104;-74
2022/09/29 04:26:08;;;;;;;17.98;8.80;;;9.00;99.90;;;;;;4995910;28;25108;-73
2022/09/29 04:28:35;;;;;;;14.07;8.27;;;8.90;99.90;;;;;;5001292;28;25162;-73
2022/09/29 04:31:01;;;;;;;15.95;8.45;;;9.10;99.90;;;;;;4997745;28;25075;-73
2022/09/29 04:33:28;;;;;;;11.95;7.97;;;9.30;99.90;;;;;;4988584;28;25091;-73
2022/09/29 04:35:54;;;;;;;18.73;8.85;;;9.10;99.90;;;;;;4989990;28;25090;-71
2022/09/29 04:38:20;;;;;;;15.73;8.55;;;9.10;99.90;;;;;;4993110;28;25116;-74
2022/09/29 04:40:47;;;;;;;13.23;8.43;;;9.20;99.90;;;;;;4991802;28;25083;-74
2022/09/29 04:43:12;;;;;;;17.35;8.68;;;9.20;99.90;;;;;;4990345;28;25127;-70
2022/09/29 04:45:38;;;;;;;12.75;8.52;;;9.20;99.90;;;;;;5000969;28;25073;-71
2022/09/29 04:48:03;;;;;;;16.65;9.05;;;9.10;99.90;;;;;;4989636;28;25098;-71
2022/09/29 04:50:29;;;;;;;16.20;8.80;;;9.10;99.90;;;;;;4991491;28;25063;-71
2022/09/29 04:52:55;;;;;;;24.63;8.82;;;9.10;99.90;;;;;;4993387;28;25077;-70
2022/09/29 04:55:20;;;;;;;14.43;8.35;;;9.20;99.90;;;;;;4997235;28;25069;-72
2022/09/29 04:57:47;;;;;;;14.68;8.43;;;9.30;99.90;;;;;;4981462;28;25130;-74
2022/09/29 05:00:14;;;;;;;16.23;8.65;;;9.20;99.90;;;;;;4995762;28;25067;-72
2022/09/29 05:02:40;;;;;;;17.23;8.88;;;9.00;99.90;;;;;;4995368;28;25062;-69
2022/09/29 05:05:06;;;;;;;15.70;8.15;;;8.90;99.90;;;;;;4990105;28;25068;-69
2022/09/29 05:07:37;;;;;;;15.13;8.82;;;8.80;99.90;;;;;;4990934;28;25132;-72
2022/09/29 05:10:03;;;;;;;13.57;8.02;;;8.90;99.90;;;;;;5008785;28;25079;-71
2022/09/29 05:12:29;;;;;;;17.27;7.95;;;9.00;99.90;;;;;;4983461;28;25071;-71
2022/09/29 05:14:55;;;;;;;18.33;9.52;;;9.00;99.90;;;;;;4993097;28;25062;-72
2022/09/29 05:17:20;;;;;;;14.68;8.95;;;8.90;99.90;;;;;;4982638;28;25056;-70
2022/09/29 05:19:46;;;;;;;14.45;8.60;;;8.90;99.90;;;;;;4990549;28;25145;-71
2022/09/29 05:22:11;;;;;;;15.40;8.75;;;8.90;99.90;;;;;;4992664;28;25094;-70
2022/09/29 05:24:37;;;;;;;13.75;9.00;;;8.90;99.90;;;;;;4984372;28;25163;-71
2022/09/29 05:27:03;;;;;;;17.33;9.05;;;8.80;99.90;;;;;;4993108;28;25091;-71
2022/09/29 05:29:28;;;;;;;15.63;9.43;;;8.90;99.90;;;;;;4989885;28;25137;-71
2022/09/29 05:31:54;;;;;;;14.90;9.07;;;8.80;99.90;;;;;;4998577;28;25057;-72
2022/09/29 05:34:20;;;;;;;17.48;9.68;;;8.80;99.90;;;;;;4985609;28;25124;-71
2022/09/29 05:36:45;;;;;;;18.58;8.98;;;8.80;99.90;;;;;;4992844;28;25060;-71
2022/09/29 05:39:11;;;;;;;21.75;9.40;;;8.80;99.90;;;;;;5001080;28;25063;-71
2022/09/29 05:41:37;;;;;;;15.43;8.82;;;8.80;99.90;;;;;;4986114;28;25086;-71
2022/09/29 05:44:03;;;;;;;15.70;9.10;;;8.80;99.90;;;;;;4989503;28;25089;-72
2022/09/29 05:46:28;;;;;;;17.23;9.15;;;8.80;99.90;;;;;;4994342;28;25090;-71
2022/09/29 05:48:54;;;;;;;17.75;8.73;;;8.80;99.90;;;;;;4992137;28;25094;-72
2022/09/29 05:51:22;;;;;;;13.20;8.50;;;8.80;99.90;;;;;;4978772;28;25097;-70
2022/09/29 05:53:48;;;;;;;18.02;9.50;;;8.90;99.90;;;;;;4993749;28;25077;-73
2022/09/29 05:56:17;;;;;;;13.93;8.95;;;8.80;99.90;;;;;;4994982;28;25087;-72
2022/09/29 05:58:43;;;;;;;16.23;9.30;;;8.90;99.90;;;;;;4993768;28;25077;-71
2022/09/29 06:01:11;;;;;;;12.77;8.15;;;8.80;99.90;;;;;;4992338;28;25093;-71
2022/09/29 06:03:37;;;;;;;16.52;10.40;;;8.70;99.90;;;;;;5002328;28;25134;-71
2022/09/29 06:06:08;;;;;;;16.48;8.63;;;8.70;99.90;;;;;;5001395;28;25127;-71
2022/09/29 06:08:34;;;;;;;16.80;8.38;;;8.80;99.90;;;;;;4986571;28;25096;-72
2022/09/29 06:11:05;;;;;;;15.43;8.50;;;8.90;99.90;;;;;;4994811;28;25069;-71
2022/09/29 06:13:31;;;;;;;16.45;9.20;;;9.10;99.90;;;;;;4998480;28;25055;-71
2022/09/29 06:16:00;;;;;;;17.13;8.60;;;9.00;99.90;;;;;;4994459;28;25145;-71
2022/09/29 06:18:26;;;;;;;19.45;9.35;;;9.00;99.90;;;;;;4993197;28;25079;-70
2022/09/29 06:20:51;;;;;;;19.50;8.95;;;9.00;99.90;;;;;;4996922;28;25061;-71
2022/09/29 06:23:17;;;;;;;18.10;9.90;;;9.00;99.90;;;;;;4998678;28;25055;-73
2022/09/29 06:25:42;;;;;;;15.52;9.23;;;9.20;99.90;;;;;;4996633;28;25065;-70
2022/09/29 06:28:08;;;;;;;16.02;9.43;;;9.20;99.90;;;;;;5012131;28;25101;-72
2022/09/29 06:30:33;;;;;;;13.35;8.15;;;9.20;99.90;;;;;;4998024;28;25069;-72
2022/09/29 06:32:59;;;;;;;19.08;10.23;;;9.20;99.90;;;;;;4988945;28;25062;-70
2022/09/29 06:38:08;;;;;;;19.15;9.27;;;9.20;99.90;;;;;;4994850;28;25152;-70
2022/09/29 06:40:34;;;;;;;17.90;9.52;;;9.20;99.90;;;;;;4987585;28;25121;-70
2022/09/29 06:43:00;;;;;;;20.10;9.73;;;9.30;99.90;;;;;;4998580;28;25081;-70
2022/09/29 06:45:25;;;;;;;18.13;9.63;;;9.30;99.90;;;;;;4986415;28;25155;-71
2022/09/29 06:47:57;;;;;;;16.65;9.75;;;9.50;99.90;;;;;;4989358;28;25081;-71
2022/09/29 06:50:22;;;;;;;15.02;9.30;;;9.50;99.90;;;;;;4978594;28;25078;-73
2022/09/29 06:52:49;;;;;;;15.77;9.25;;;9.60;99.90;;;;;;4985641;28;25053;-71
2022/09/29 06:55:14;;;;;;;17.67;11.05;;;9.70;99.90;;;;;;4988375;28;25059;-71
2022/09/29 06:57:40;;;;;;;16.85;9.52;;;9.70;99.90;;;;;;4989396;28;25072;-72
2022/09/29 07:00:06;;;;;;;15.68;9.02;;;9.80;99.90;;;;;;4990735;28;25057;-72
2022/09/29 07:02:32;;;;;;;14.18;9.60;;;9.90;99.90;;;;;;4986208;28;25052;-70
2022/09/29 07:04:57;;;;;;;22.55;10.18;;;10.00;99.90;;;;;;4986289;28;25162;-72
2022/09/29 07:07:23;;;;;;;18.40;10.32;;;10.00;99.90;;;;;;4984623;28;25180;-71
2022/09/29 07:09:48;;;;;;;16.85;10.95;;;10.10;99.90;;;;;;4999367;28;25076;-72
2022/09/29 07:12:14;;;;;;;23.90;10.18;;;10.10;99.90;;;;;;4990413;28;25134;-72
2022/09/29 07:14:39;;;;;;;17.48;9.63;;;10.20;99.90;;;;;;4992017;28;25120;-71
2022/09/29 07:17:05;;;;;;;16.50;10.18;;;10.20;99.90;;;;;;4988186;28;25094;-71
2022/09/29 07:19:31;;;;;;;18.80;10.88;;;10.30;99.90;;;;;;4987948;28;25092;-70
2022/09/29 07:21:57;;;;;;;20.83;11.23;;;10.40;99.90;;;;;;4992988;28;25097;-71
2022/09/29 07:24:23;;;;;;;16.27;10.27;;;10.40;99.90;;;;;;4979803;28;25146;-71
2022/09/29 07:26:49;;;;;;;17.58;10.35;;;10.50;99.90;;;;;;4995243;28;25126;-72
2022/09/29 07:29:15;;;;;;;19.00;10.55;;;10.50;99.90;;;;;;4997555;28;25138;-70
2022/09/29 07:31:40;;;;;;;19.77;11.20;;;10.50;99.90;;;;;;4994842;28;25073;-70
2022/09/29 07:34:06;;;;;;;19.42;12.07;;;10.70;99.90;;;;;;4999144;28;25046;-71
2022/09/29 07:36:32;;;;;;;17.50;11.55;;;10.70;99.90;;;;;;4980981;28;25058;-70
2022/09/29 07:38:58;;;;;;;18.58;10.32;;;10.70;99.90;;;;;;4993454;28;25154;-70
2022/09/29 07:41:23;;;;;;;18.30;10.23;;;10.60;99.90;;;;;;5000857;28;25121;-71
2022/09/29 07:43:49;;;;;;;16.90;10.05;;;10.70;99.90;;;;;;4999467;28;25099;-71
2022/09/29 07:46:15;;;;;;;21.05;10.65;;;10.80;99.90;;;;;;5001276;28;25146;-71
2022/09/29 07:48:40;;;;;;;19.05;10.27;;;11.00;99.90;;;;;;4999714;28;25050;-71
2022/09/29 07:51:15;;;;;;;23.63;10.85;;;11.10;99.90;;;;;;4997329;28;25071;-71
2022/09/29 07:53:41;;;;;;;19.50;10.70;;;11.20;99.90;;;;;;5000786;28;25177;-70
2022/09/29 07:56:13;;;;;;;19.48;12.07;;;11.20;99.90;;;;;;4991215;28;25094;-70
2022/09/29 07:58:39;;;;;;;19.33;10.13;;;11.20;99.90;;;;;;4995514;28;25070;-71
2022/09/29 08:01:09;;;;;;;19.38;11.57;;;11.40;99.90;;;;;;4984515;28;25051;-72
2022/09/29 08:03:38;;;;;;;18.52;10.70;;;11.50;99.90;;;;;;4992790;28;25064;-71
2022/09/29 08:06:05;;;;;;;19.90;10.90;;;11.60;99.90;;;;;;4995373;28;25138;-72
2022/09/29 08:08:31;;;;;;;16.08;10.35;;;11.80;99.90;;;;;;4997453;28;25157;-72
2022/09/29 08:11:04;;;;;;;17.55;10.75;;;11.90;99.90;;;;;;4989108;28;25083;-71
2022/09/29 08:13:31;;;;;;;16.85;10.13;;;11.90;99.90;;;;;;4992579;28;25061;-71
2022/09/29 08:16:00;;;;;;;18.90;11.10;;;12.30;99.90;;;;;;4997702;28;25053;-72
2022/09/29 08:18:30;;;;;;;17.77;10.93;;;12.80;99.90;;;;;;5004718;28;25071;-71
2022/09/29 08:20:56;;;;;;;17.40;9.88;;;13.10;99.90;;;;;;4989253;28;25390;-71
2022/09/29 08:23:22;;;;;;;12.77;8.55;;;12.70;99.90;;;;;;4987668;28;25092;-71
2022/09/29 08:25:48;;;;;;;13.68;8.85;;;13.10;99.90;;;;;;4981597;28;25070;-71
2022/09/29 08:28:14;;;;;;;11.75;8.00;;;13.70;99.90;;;;;;4985944;28;25097;-72
2022/09/29 08:30:40;;;;;;;14.00;9.70;;;13.90;99.90;;;;;;4989238;28;25118;-71
2022/09/29 08:33:11;;;;;;;12.57;9.50;;;13.70;99.90;;;;;;4985715;28;25057;-71
2022/09/29 08:35:37;;;;;;;13.90;8.75;;;13.10;99.90;;;;;;4990728;28;25138;-72
2022/09/29 08:38:02;;;;;;;12.25;8.55;;;13.60;99.90;;;;;;4998615;28;25062;-71
2022/09/29 08:40:30;;;;;;;12.02;7.90;;;13.50;99.90;;;;;;4986569;28;25126;-70
2022/09/29 08:43:30;;;;;;;12.85;8.40;;;13.90;99.90;;;;;;4985958;28;25139;-69
2022/09/29 08:46:04;;;;;;;12.90;8.43;;;13.90;99.90;;;;;;4979395;28;25064;-71
2022/09/29 08:48:36;;;;;;;13.38;7.68;;;14.10;99.90;;;;;;4996176;28;25098;-70
2022/09/29 08:51:04;;;;;;;;;;;13.40;99.90;;;;;;4996026;28;25060;-71
2022/09/29 08:53:34;;;;;;;12.63;6.78;;;12.80;99.90;;;;;;4988500;28;24078;-71
2022/09/29 08:56:06;;;;;;;10.63;7.60;;;12.90;99.90;;;;;;5001155;28;25107;-70
2022/09/29 08:58:33;;;;;;;12.18;7.95;;;12.70;99.90;;;;;;5004174;28;25113;-70
2022/09/29 09:01:08;;;;;;;13.65;8.00;;;13.00;99.90;;;;;;5003239;28;25169;-71
2022/09/29 09:03:45;;;;;;;11.93;7.88;;;13.40;99.90;;;;;;5009094;28;25058;-71
2022/09/29 09:06:59;;;;;;;12.02;6.97;;;13.40;99.90;;;;;;5003173;28;25065;-70
2022/09/29 09:09:38;;;;;;;12.13;6.35;;;13.60;99.90;;;;;;4979069;28;25046;-69
2022/09/29 09:12:23;;;;;;;8.50;5.97;;;13.60;99.90;;;;;;4998768;28;25082;-72
2022/09/29 09:15:13;;;;;;;11.38;6.88;;;13.50;99.90;;;;;;4996918;28;25140;-70
2022/09/29 09:17:58;;;;;;;7.53;5.65;;;13.40;99.90;;;;;;4992805;28;25101;-72
2022/09/29 09:20:31;;;;;;;11.32;6.45;;;12.70;99.90;;;;;;4986324;28;25094;-70
2022/09/29 09:23:02;;;;;;;10.07;6.25;;;12.90;99.90;;;;;;4991429;28;25098;-70
2022/09/29 09:25:40;;;;;;;10.07;6.30;;;13.00;99.90;;;;;;4985377;28;25068;-70
2022/09/29 09:28:16;;;;;;;9.10;6.80;;;13.10;99.90;;;;;;5005230;28;25062;-72
2022/09/29 09:31:00;;;;;;;10.93;6.70;;;12.90;99.90;;;;;;4998508;28;25063;-70
2022/09/29 09:33:36;;;;;;;12.50;6.00;;;12.90;99.90;;;;;;4998342;28;25066;-71
2022/09/29 09:36:17;;;;;;;11.70;6.40;;;12.80;99.90;;;;;;4997902;28;25077;-69
2022/09/29 09:39:03;;;;;;;12.80;7.65;;;12.70;99.90;;;;;;4999614;28;25058;-71
2022/09/29 09:41:30;;;;;;;14.63;7.72;;;12.60;99.90;;;;;;4988046;28;25074;-70
2022/09/29 09:44:02;;;;;;;10.93;7.88;;;12.60;99.90;;;;;;5003552;28;25069;-71
2022/09/29 09:46:46;;;;;;;11.48;7.03;;;12.80;99.90;;;;;;4983152;28;25139;-70
2022/09/29 09:49:25;;;;;;;11.50;8.13;;;13.00;99.90;;;;;;4988003;28;25108;-71
2022/09/29 09:52:10;;;;;;;13.38;8.23;;;13.10;99.90;;;;;;5003059;28;25092;-69
2022/09/29 09:54:39;;;;;;;11.52;6.35;;;13.00;99.90;;;;;;4989187;28;25051;-70
2022/09/29 09:57:08;;;;;;;14.38;6.43;;;13.00;99.90;;;;;;4999979;28;25117;-70
2022/09/29 09:59:59;;;;;;;9.95;6.10;;;12.90;99.90;;;;;;4982992;28;25080;-72
2022/09/29 10:02:25;;;;;;;8.50;4.97;;;12.80;99.90;;;;;;4992151;28;25060;-69
2022/09/29 10:04:52;;;;;;;6.22;4.57;;;12.80;99.90;;;;;;4991503;28;25085;-69
2022/09/29 10:07:22;;;;;;;5.93;4.22;;;12.80;99.90;;;;;;4982965;28;25169;-72
2022/09/29 10:09:49;;;;;;;5.45;3.88;;;13.00;99.90;;;;;;4991305;28;25066;-71
2022/09/29 10:12:17;;;;;;;4.60;3.25;;;13.20;99.90;;;;;;4992730;28;25160;-71
2022/09/29 10:15:21;;;;;;;6.70;3.60;;;13.30;99.90;;;;;;4984791;28;25065;-71
2022/09/29 10:17:57;;;;;;;5.78;3.55;;;13.30;99.90;;;;;;4972923;28;25041;-71
2022/09/29 10:20:36;;;;;;;6.97;3.28;;;13.30;99.90;;;;;;4977742;28;25078;-70
2022/09/29 10:23:25;;;;;;;3.90;2.50;;;13.30;99.90;;;;;;5002077;28;25110;-70
2022/09/29 10:26:11;;;;;;;6.10;3.08;;;13.30;99.90;;;;;;4982824;28;25143;-70
2022/09/29 10:28:52;;;;;;;3.88;2.92;;;13.40;99.90;;;;;;4991379;28;25082;-71
2022/09/29 10:31:22;;;;;;;5.30;3.53;;;13.70;99.90;;;;;;4996766;28;25081;-70
2022/09/29 10:34:01;;;;;;;11.10;4.70;;;13.70;99.90;;;;;;4987955;28;25079;-72
2022/09/29 10:36:45;;;;;;;8.93;4.30;;;13.80;99.90;;;;;;4991446;28;25369;-72
2022/09/29 10:39:42;;;;;;;6.18;4.13;;;13.90;99.90;;;;;;4986915;28;25092;-69
2022/09/29 10:42:38;;;;;;;5.75;4.50;;;13.90;99.90;;;;;;4995116;28;25054;-69
2022/09/29 10:45:03;;;;;;;6.05;4.47;;;14.00;99.90;;;;;;4986995;28;25163;-70
2022/09/29 10:47:29;;;;;;;7.50;4.40;;;14.20;99.90;;;;;;4998957;28;25091;-70
2022/09/29 10:50:12;;;;;;;8.20;4.38;;;13.90;99.90;;;;;;4995911;28;25079;-68
2022/09/29 10:52:49;;;;;;;7.63;4.10;;;14.00;99.90;;;;;;4999253;28;25104;-70
2022/09/29 10:55:18;;;;;;;6.15;3.78;;;14.10;99.90;;;;;;4995616;28;25116;-71
2022/09/29 10:57:45;;;;;;;5.53;2.97;;;14.10;99.90;;;;;;4992675;28;25159;-71
2022/09/29 11:00:37;;;;;;;4.45;2.83;;;14.30;99.90;;;;;;4998618;28;25094;-72
2022/09/29 11:03:19;;;;;;;5.18;3.03;;;14.40;99.90;;;;;;4993901;28;25091;-71
2022/09/29 11:06:08;;;;;;;5.20;3.13;;;14.60;99.90;;;;;;4994212;28;25093;-71
2022/09/29 11:09:00;;;;;;;5.80;3.13;;;14.60;99.90;;;;;;4994499;28;25074;-70
2022/09/29 11:11:28;;;;;;;5.53;3.30;;;14.40;99.90;;;;;;4989564;28;25089;-71
2022/09/29 11:13:55;;;;;;;3.97;3.00;;;14.30;99.90;;;;;;4990432;28;25103;-71
2022/09/29 11:16:28;;;;;;;4.05;2.90;;;13.90;99.90;;;;;;4997072;28;25081;-71
2022/09/29 11:19:00;;;;;;;3.92;2.60;;;13.80;99.90;;;;;;4994299;28;25085;-71
2022/09/29 11:22:03;;;;;;;3.57;2.40;;;13.70;99.90;;;;;;4985513;28;25060;-70
2022/09/29 11:24:38;;;;;;;2.70;1.77;;;14.10;99.90;;;;;;4974066;28;25179;-69
2022/09/29 11:27:18;;;;;;;2.10;1.73;;;14.60;99.90;;;;;;4996551;28;25068;-71
2022/09/29 11:29:56;;;;;;;2.42;1.48;;;15.20;99.90;;;;;;4998401;28;25063;-71
2022/09/29 11:32:29;;;;;;;1.52;1.10;;;15.20;99.90;;;;;;4999241;28;25063;-70
2022/09/29 11:35:32;;;;;;;1.00;0.90;;;15.50;99.90;;;;;;4989398;28;25121;-72
2022/09/29 11:38:18;;;;;;;0.60;0.60;;;16.10;99.90;;;;;;4992376;28;25102;-70
2022/09/29 11:41:03;;;;;;;1.02;0.80;;;16.70;99.90;;;;;;5001240;28;25067;-70
2022/09/29 11:43:28;;;;;;;1.77;0.70;;;16.30;99.90;;;;;;4982970;28;25049;-71
2022/09/29 11:46:31;;;;;;;0.95;0.75;;;16.50;99.90;;;;;;4997021;28;25071;-71
2022/09/29 11:49:24;;;;;;;1.67;0.80;;;17.20;99.90;;;;;;4991594;28;25171;-70
2022/09/29 11:52:20;;;;;;;0.75;0.65;;;17.40;99.90;;;;;;4990883;28;25082;-71
2022/09/29 11:55:08;;;;;;;0.70;0.70;;;18.00;99.90;;;;;;4993035;28;25045;-70
2022/09/29 11:57:43;;;;;;;0.75;0.60;;;17.70;99.90;;;;;;4997329;28;25054;-69
2022/09/29 12:00:11;;;;;;;1.27;0.55;;;18.20;99.90;;;;;;4991695;28;25050;-68
2022/09/29 12:03:22;;;;;;;1.38;0.57;;;18.50;99.90;;;;;;4991136;28;25065;-70
2022/09/29 12:06:04;;;;;;;0.73;0.50;;;18.60;99.90;;;;;;4992528;28;25061;-70
2022/09/29 12:09:01;;;;;;;0.75;0.75;;;18.40;99.90;;;;;;4993703;28;25050;-70
2022/09/29 12:11:42;;;;;;;1.52;0.85;;;18.60;99.90;;;;;;4988850;28;25099;-71
2022/09/29 12:14:29;;;;;;;0.50;0.50;;;19.00;99.90;;;;;;4995452;28;25146;-70
2022/09/29 12:17:03;;;;;;;0.98;0.70;;;18.80;99.90;;;;;;4997583;28;25073;-71
2022/09/29 12:19:32;;;;;;;0.70;0.47;;;18.90;99.90;;;;;;4984424;28;25081;-70
2022/09/29 12:22:01;;;;;;;0.52;0.52;;;18.20;99.90;;;;;;4987867;28;25082;-69
2022/09/29 12:24:47;;;;;;;0.98;0.80;;;18.10;99.90;;;;;;4993689;28;25140;-68
2022/09/29 12:27:23;;;;;;;0.65;0.55;;;17.90;99.90;;;;;;5000879;28;25147;-69
2022/09/29 12:30:16;;;;;;;1.33;0.85;;;17.80;99.90;;;;;;4996621;28;25059;-69
2022/09/29 12:33:00;;;;;;;0.50;0.50;;;17.90;99.90;;;;;;5003149;28;25332;-71
2022/09/29 12:35:40;;;;;;;0.82;0.70;;;17.60;99.90;;;;;;4986266;28;25083;-71
2022/09/29 12:38:15;;;;;;;1.15;0.43;;;17.60;99.90;;;;;;4991036;28;25141;-70
2022/09/29 12:41:12;;;;;;;3.70;0.63;;;17.80;99.90;;;;;;5003132;28;25106;-70
2022/09/29 12:44:01;;;;;;;1.88;0.60;;;17.60;99.90;;;;;;4991418;28;25121;-70
2022/09/29 12:46:36;;;;;;;0.47;0.40;;;18.00;99.90;;;;;;4993459;28;24969;-70
2022/09/29 12:49:11;;;;;;;2.85;1.42;;;17.80;99.90;;;;;;4979019;28;25055;-71
2022/09/29 12:51:50;;;;;;;0.82;0.60;;;17.20;99.90;;;;;;4996212;28;25060;-70
2022/09/29 12:54:35;;;;;;;0.68;0.65;;;17.10;99.90;;;;;;4998954;28;25076;-71
2022/09/29 12:57:04;;;;;;;3.03;0.70;;;17.50;99.90;;;;;;4980158;28;25058;-70
2022/09/29 13:00:03;;;;;;;0.93;0.60;;;17.90;99.90;;;;;;4994654;28;25081;-69
2022/09/29 13:02:50;;;;;;;0.70;0.50;;;17.90;99.90;;;;;;4997830;28;25187;-69
2022/09/29 13:05:19;;;;;;;1.13;0.60;;;17.60;99.90;;;;;;4992293;28;25162;-70
2022/09/29 13:08:26;;;;;;;0.43;0.43;;;17.40;99.90;;;;;;4997876;28;25082;-70
2022/09/29 13:11:36;;;;;;;1.17;0.52;;;17.90;99.90;;;;;;4992620;28;25156;-71